sensor_id;sensor_type;location;lat;lon;timestamp;temperature;humidity
16970;DHT22;8601;48.718;8.992;2023-05-07T00:01:02;13.40;99.90
16970;DHT22;8601;48.718;8.992;2023-05-07T00:03:31;13.40;99.90
16970;DHT22;8601;48.718;8.992;2023-05-07T00:05:58;13.40;99.90
16970;DHT22;8601;48.718;8.992;2023-05-07T00:08:25;13.30;99.90
16970;DHT22;8601;48.718;8.992;2023-05-07T00:10:54;13.40;99.90
16970;DHT22;8601;48.718;8.992;2023-05-07T00:13:21;13.30;99.90
16970;DHT22;8601;48.718;8.992;2023-05-07T00:15:47;13.20;99.90
16970;DHT22;8601;48.718;8.992;2023-05-07T00:18:15;13.10;99.90
16970;DHT22;8601;48.718;8.992;2023-05-07T00:20:46;13.10;99.90
16970;DHT22;8601;48.718;8.992;2023-05-07T00:23:13;13.10;99.90
16970;DHT22;8601;48.718;8.992;2023-05-07T00:25:40;13.00;99.90
16970;DHT22;8601;48.718;8.992;2023-05-07T00:28:09;13.00;99.90
16970;DHT22;8601;48.718;8.992;2023-05-07T00:30:35;13.00;99.90
16970;DHT22;8601;48.718;8.992;2023-05-07T00:33:02;13.00;99.90
16970;DHT22;8601;48.718;8.992;2023-05-07T00:35:30;12.90;99.90
16970;DHT22;8601;48.718;8.992;2023-05-07T00:37:58;12.90;99.90
16970;DHT22;8601;48.718;8.992;2023-05-07T00:40:26;12.90;99.90
16970;DHT22;8601;48.718;8.992;2023-05-07T00:42:53;12.90;99.90
16970;DHT22;8601;48.718;8.992;2023-05-07T00:45:27;12.90;99.90
16970;DHT22;8601;48.718;8.992;2023-05-07T00:47:54;12.90;99.90
16970;DHT22;8601;48.718;8.992;2023-05-07T00:50:22;12.90;99.90
16970;DHT22;8601;48.718;8.992;2023-05-07T00:52:49;12.90;99.90
16970;DHT22;8601;48.718;8.992;2023-05-07T00:55:16;13.00;99.90
16970;DHT22;8601;48.718;8.992;2023-05-07T00:57:44;12.90;99.90
16970;DHT22;8601;48.718;8.992;2023-05-07T01:00:12;12.80;99.90
16970;DHT22;8601;48.718;8.992;2023-05-07T01:02:41;12.70;99.90
16970;DHT22;8601;48.718;8.992;2023-05-07T01:05:09;12.70;99.90
16970;DHT22;8601;48.718;8.992;2023-05-07T01:07:37;12.80;99.90
16970;DHT22;8601;48.718;8.992;2023-05-07T01:10:05;12.70;99.90
16970;DHT22;8601;48.718;8.992;2023-05-07T01:12:33;12.80;99.90
16970;DHT22;8601;48.718;8.992;2023-05-07T01:15:02;12.80;99.90
16970;DHT22;8601;48.718;8.992;2023-05-07T01:17:29;12.80;99.90
16970;DHT22;8601;48.718;8.992;2023-05-07T01:19:59;12.70;99.90
16970;DHT22;8601;48.718;8.992;2023-05-07T01:22:30;12.70;99.90
16970;DHT22;8601;48.718;8.992;2023-05-07T01:24:58;12.70;99.90
16970;DHT22;8601;48.718;8.992;2023-05-07T01:27:27;12.70;99.90
16970;DHT22;8601;48.718;8.992;2023-05-07T01:29:54;12.80;99.90
16970;DHT22;8601;48.718;8.992;2023-05-07T01:32:27;12.80;99.90
16970;DHT22;8601;48.718;8.992;2023-05-07T01:34:57;12.80;99.90
16970;DHT22;8601;48.718;8.992;2023-05-07T01:37:25;12.80;99.90
16970;DHT22;8601;48.718;8.992;2023-05-07T01:39:54;12.80;99.90
16970;DHT22;8601;48.718;8.992;2023-05-07T01:42:22;12.90;99.90
16970;DHT22;8601;48.718;8.992;2023-05-07T01:44:49;12.90;99.90
16970;DHT22;8601;48.718;8.992;2023-05-07T01:47:17;12.90;99.90
16970;DHT22;8601;48.718;8.992;2023-05-07T01:49:44;12.90;99.90
16970;DHT22;8601;48.718;8.992;2023-05-07T01:52:11;12.80;99.90
16970;DHT22;8601;48.718;8.992;2023-05-07T01:54:38;12.70;99.90
16970;DHT22;8601;48.718;8.992;2023-05-07T01:57:06;12.60;99.90
16970;DHT22;8601;48.718;8.992;2023-05-07T01:59:34;12.60;99.90
16970;DHT22;8601;48.718;8.992;2023-05-07T02:02:00;12.60;99.90
16970;DHT22;8601;48.718;8.992;2023-05-07T02:04:27;12.60;99.90
16970;DHT22;8601;48.718;8.992;2023-05-07T02:06:54;12.60;99.90
16970;DHT22;8601;48.718;8.992;2023-05-07T02:09:21;12.70;99.90
16970;DHT22;8601;48.718;8.992;2023-05-07T02:11:49;12.60;99.90
16970;DHT22;8601;48.718;8.992;2023-05-07T02:14:17;12.50;99.90
16970;DHT22;8601;48.718;8.992;2023-05-07T02:16:45;12.50;99.90
16970;DHT22;8601;48.718;8.992;2023-05-07T02:19:12;12.40;99.90
16970;DHT22;8601;48.718;8.992;2023-05-07T02:21:39;12.40;99.90
16970;DHT22;8601;48.718;8.992;2023-05-07T02:24:06;12.50;99.90
16970;DHT22;8601;48.718;8.992;2023-05-07T02:26:33;12.50;99.90
16970;DHT22;8601;48.718;8.992;2023-05-07T02:29:00;12.50;99.90
16970;DHT22;8601;48.718;8.992;2023-05-07T02:31:31;12.40;99.90
16970;DHT22;8601;48.718;8.992;2023-05-07T02:33:59;12.30;99.90
16970;DHT22;8601;48.718;8.992;2023-05-07T02:36:26;12.20;99.90
16970;DHT22;8601;48.718;8.992;2023-05-07T02:38:53;12.20;99.90
16970;DHT22;8601;48.718;8.992;2023-05-07T02:41:20;12.30;99.90
16970;DHT22;8601;48.718;8.992;2023-05-07T02:43:47;12.20;99.90
16970;DHT22;8601;48.718;8.992;2023-05-07T02:46:14;12.20;99.90
16970;DHT22;8601;48.718;8.992;2023-05-07T02:48:42;12.20;99.90
16970;DHT22;8601;48.718;8.992;2023-05-07T02:51:10;12.20;99.90
16970;DHT22;8601;48.718;8.992;2023-05-07T02:53:37;12.10;99.90
16970;DHT22;8601;48.718;8.992;2023-05-07T02:56:04;12.00;99.90
16970;DHT22;8601;48.718;8.992;2023-05-07T02:58:32;11.90;99.90
16970;DHT22;8601;48.718;8.992;2023-05-07T03:00:59;11.90;99.90
16970;DHT22;8601;48.718;8.992;2023-05-07T03:03:26;11.90;99.90
16970;DHT22;8601;48.718;8.992;2023-05-07T03:05:54;12.00;99.90
16970;DHT22;8601;48.718;8.992;2023-05-07T03:08:21;11.90;99.90
16970;DHT22;8601;48.718;8.992;2023-05-07T03:10:48;11.80;99.90
16970;DHT22;8601;48.718;8.992;2023-05-07T03:13:15;11.80;99.90
16970;DHT22;8601;48.718;8.992;2023-05-07T03:15:42;11.70;99.90
16970;DHT22;8601;48.718;8.992;2023-05-07T03:18:09;11.70;99.90
16970;DHT22;8601;48.718;8.992;2023-05-07T03:20:36;11.80;99.90
16970;DHT22;8601;48.718;8.992;2023-05-07T03:23:10;11.80;99.90
16970;DHT22;8601;48.718;8.992;2023-05-07T03:25:37;11.90;99.90
16970;DHT22;8601;48.718;8.992;2023-05-07T03:28:04;11.90;99.90
16970;DHT22;8601;48.718;8.992;2023-05-07T03:30:32;11.90;99.90
16970;DHT22;8601;48.718;8.992;2023-05-07T03:32:59;11.90;99.90
16970;DHT22;8601;48.718;8.992;2023-05-07T03:35:25;11.90;99.90
16970;DHT22;8601;48.718;8.992;2023-05-07T03:37:52;11.80;99.90
16970;DHT22;8601;48.718;8.992;2023-05-07T03:40:21;11.70;99.90
16970;DHT22;8601;48.718;8.992;2023-05-07T03:42:47;11.80;99.90
16970;DHT22;8601;48.718;8.992;2023-05-07T03:45:14;11.70;99.90
16970;DHT22;8601;48.718;8.992;2023-05-07T03:47:41;11.70;99.90
16970;DHT22;8601;48.718;8.992;2023-05-07T03:50:09;11.80;99.90
16970;DHT22;8601;48.718;8.992;2023-05-07T03:52:36;11.80;99.90
16970;DHT22;8601;48.718;8.992;2023-05-07T03:55:04;11.80;99.90
16970;DHT22;8601;48.718;8.992;2023-05-07T03:57:32;11.80;99.90
16970;DHT22;8601;48.718;8.992;2023-05-07T03:59:59;11.80;99.90
16970;DHT22;8601;48.718;8.992;2023-05-07T04:02:26;11.60;99.90
16970;DHT22;8601;48.718;8.992;2023-05-07T04:04:53;11.40;99.90
16970;DHT22;8601;48.718;8.992;2023-05-07T04:07:20;11.30;99.90
16970;DHT22;8601;48.718;8.992;2023-05-07T04:09:47;11.30;99.90
16970;DHT22;8601;48.718;8.992;2023-05-07T04:12:14;11.10;99.90
16970;DHT22;8601;48.718;8.992;2023-05-07T04:14:43;11.20;99.90
16970;DHT22;8601;48.718;8.992;2023-05-07T04:17:12;11.30;99.90
16970;DHT22;8601;48.718;8.992;2023-05-07T04:19:38;11.40;99.90
16970;DHT22;8601;48.718;8.992;2023-05-07T04:22:10;11.40;99.90
16970;DHT22;8601;48.718;8.992;2023-05-07T04:24:37;11.40;99.90
16970;DHT22;8601;48.718;8.992;2023-05-07T04:27:04;11.40;99.90
16970;DHT22;8601;48.718;8.992;2023-05-07T04:29:31;11.50;99.90
16970;DHT22;8601;48.718;8.992;2023-05-07T04:32:00;11.50;99.90
16970;DHT22;8601;48.718;8.992;2023-05-07T04:34:27;11.30;99.90
16970;DHT22;8601;48.718;8.992;2023-05-07T04:36:57;11.20;99.90
16970;DHT22;8601;48.718;8.992;2023-05-07T04:39:24;11.20;99.90
16970;DHT22;8601;48.718;8.992;2023-05-07T04:41:51;11.10;99.90
16970;DHT22;8601;48.718;8.992;2023-05-07T04:44:19;11.20;99.90
16970;DHT22;8601;48.718;8.992;2023-05-07T04:46:46;11.20;99.90
16970;DHT22;8601;48.718;8.992;2023-05-07T04:49:14;11.30;99.90
16970;DHT22;8601;48.718;8.992;2023-05-07T04:51:41;11.40;99.90
16970;DHT22;8601;48.718;8.992;2023-05-07T04:54:08;11.40;99.90
16970;DHT22;8601;48.718;8.992;2023-05-07T04:56:35;11.40;99.90
16970;DHT22;8601;48.718;8.992;2023-05-07T04:59:03;11.50;99.90
16970;DHT22;8601;48.718;8.992;2023-05-07T05:01:31;11.50;99.90
16970;DHT22;8601;48.718;8.992;2023-05-07T05:03:58;11.40;99.90
16970;DHT22;8601;48.718;8.992;2023-05-07T05:06:28;11.50;99.90
16970;DHT22;8601;48.718;8.992;2023-05-07T05:08:56;11.50;99.90
16970;DHT22;8601;48.718;8.992;2023-05-07T05:11:22;11.50;99.90
16970;DHT22;8601;48.718;8.992;2023-05-07T05:13:50;11.60;99.90
16970;DHT22;8601;48.718;8.992;2023-05-07T05:16:17;11.70;99.90
16970;DHT22;8601;48.718;8.992;2023-05-07T05:18:46;11.70;99.90
16970;DHT22;8601;48.718;8.992;2023-05-07T05:21:13;11.70;99.90
16970;DHT22;8601;48.718;8.992;2023-05-07T05:23:41;11.80;99.90
16970;DHT22;8601;48.718;8.992;2023-05-07T05:26:08;11.80;99.90
16970;DHT22;8601;48.718;8.992;2023-05-07T05:28:36;11.90;99.90
16970;DHT22;8601;48.718;8.992;2023-05-07T05:31:03;11.90;99.90
16970;DHT22;8601;48.718;8.992;2023-05-07T05:33:29;12.00;99.90
16970;DHT22;8601;48.718;8.992;2023-05-07T05:35:56;12.00;99.90
16970;DHT22;8601;48.718;8.992;2023-05-07T05:38:23;12.10;99.90
16970;DHT22;8601;48.718;8.992;2023-05-07T05:40:52;12.20;99.90
16970;DHT22;8601;48.718;8.992;2023-05-07T05:43:19;12.20;99.90
16970;DHT22;8601;48.718;8.992;2023-05-07T05:45:47;12.20;99.90
16970;DHT22;8601;48.718;8.992;2023-05-07T05:48:14;12.30;99.90
16970;DHT22;8601;48.718;8.992;2023-05-07T05:50:42;12.40;99.90
16970;DHT22;8601;48.718;8.992;2023-05-07T05:53:09;12.40;99.90
16970;DHT22;8601;48.718;8.992;2023-05-07T05:55:36;12.40;99.90
16970;DHT22;8601;48.718;8.992;2023-05-07T05:58:04;12.50;99.90
16970;DHT22;8601;48.718;8.992;2023-05-07T06:00:31;12.60;99.90
16970;DHT22;8601;48.718;8.992;2023-05-07T06:02:58;12.70;99.90
16970;DHT22;8601;48.718;8.992;2023-05-07T06:05:25;12.70;99.90
16970;DHT22;8601;48.718;8.992;2023-05-07T06:07:52;12.70;99.90
16970;DHT22;8601;48.718;8.992;2023-05-07T06:10:19;12.80;99.90
16970;DHT22;8601;48.718;8.992;2023-05-07T06:12:45;12.90;99.90
16970;DHT22;8601;48.718;8.992;2023-05-07T06:15:14;13.00;99.90
16970;DHT22;8601;48.718;8.992;2023-05-07T06:17:41;13.10;99.90
16970;DHT22;8601;48.718;8.992;2023-05-07T06:20:09;13.20;99.90
16970;DHT22;8601;48.718;8.992;2023-05-07T06:22:35;13.40;99.90
16970;DHT22;8601;48.718;8.992;2023-05-07T06:25:03;13.50;99.90
16970;DHT22;8601;48.718;8.992;2023-05-07T06:27:30;13.60;99.90
16970;DHT22;8601;48.718;8.992;2023-05-07T06:29:57;14.10;99.90
16970;DHT22;8601;48.718;8.992;2023-05-07T06:32:25;15.20;99.90
16970;DHT22;8601;48.718;8.992;2023-05-07T06:34:52;15.80;99.90
16970;DHT22;8601;48.718;8.992;2023-05-07T06:37:19;15.80;99.90
16970;DHT22;8601;48.718;8.992;2023-05-07T06:39:46;15.50;99.90
16970;DHT22;8601;48.718;8.992;2023-05-07T06:42:13;15.20;99.90
16970;DHT22;8601;48.718;8.992;2023-05-07T06:44:42;15.00;99.90
16970;DHT22;8601;48.718;8.992;2023-05-07T06:47:09;14.90;99.90
16970;DHT22;8601;48.718;8.992;2023-05-07T06:49:37;15.00;99.90
16970;DHT22;8601;48.718;8.992;2023-05-07T06:52:04;14.90;99.90
16970;DHT22;8601;48.718;8.992;2023-05-07T06:54:31;15.00;99.90
16970;DHT22;8601;48.718;8.992;2023-05-07T06:56:59;15.10;99.90
16970;DHT22;8601;48.718;8.992;2023-05-07T06:59:26;15.20;99.90
16970;DHT22;8601;48.718;8.992;2023-05-07T07:01:53;15.30;99.90
16970;DHT22;8601;48.718;8.992;2023-05-07T07:04:20;15.50;99.90
16970;DHT22;8601;48.718;8.992;2023-05-07T07:06:49;15.60;99.90
16970;DHT22;8601;48.718;8.992;2023-05-07T07:09:18;15.70;99.90
16970;DHT22;8601;48.718;8.992;2023-05-07T07:11:45;15.70;99.90
16970;DHT22;8601;48.718;8.992;2023-05-07T07:14:12;15.80;99.90
16970;DHT22;8601;48.718;8.992;2023-05-07T07:16:39;15.90;99.90
16970;DHT22;8601;48.718;8.992;2023-05-07T07:19:06;16.10;99.90
16970;DHT22;8601;48.718;8.992;2023-05-07T07:21:33;16.20;99.90
16970;DHT22;8601;48.718;8.992;2023-05-07T07:24:01;16.40;99.90
16970;DHT22;8601;48.718;8.992;2023-05-07T07:26:28;16.60;99.90
16970;DHT22;8601;48.718;8.992;2023-05-07T07:28:55;16.70;99.90
16970;DHT22;8601;48.718;8.992;2023-05-07T07:31:22;16.80;99.90
16970;DHT22;8601;48.718;8.992;2023-05-07T07:33:49;16.90;99.90
16970;DHT22;8601;48.718;8.992;2023-05-07T07:36:16;17.00;99.90
16970;DHT22;8601;48.718;8.992;2023-05-07T07:38:43;17.00;99.90
16970;DHT22;8601;48.718;8.992;2023-05-07T07:41:11;17.20;99.90
16970;DHT22;8601;48.718;8.992;2023-05-07T07:43:38;17.30;99.90
16970;DHT22;8601;48.718;8.992;2023-05-07T07:46:04;17.30;99.90
16970;DHT22;8601;48.718;8.992;2023-05-07T07:48:31;17.40;99.90
16970;DHT22;8601;48.718;8.992;2023-05-07T07:50:58;17.40;99.90
16970;DHT22;8601;48.718;8.992;2023-05-07T07:53:25;17.40;99.90
16970;DHT22;8601;48.718;8.992;2023-05-07T07:55:52;17.40;99.90
16970;DHT22;8601;48.718;8.992;2023-05-07T07:58:21;17.50;99.90
16970;DHT22;8601;48.718;8.992;2023-05-07T08:00:50;17.50;99.90
16970;DHT22;8601;48.718;8.992;2023-05-07T08:03:16;17.50;99.90
16970;DHT22;8601;48.718;8.992;2023-05-07T08:05:45;17.60;99.90
16970;DHT22;8601;48.718;8.992;2023-05-07T08:08:12;17.70;99.90
16970;DHT22;8601;48.718;8.992;2023-05-07T08:10:38;17.80;99.90
16970;DHT22;8601;48.718;8.992;2023-05-07T08:13:05;18.10;99.90
16970;DHT22;8601;48.718;8.992;2023-05-07T08:15:34;18.20;99.90
16970;DHT22;8601;48.718;8.992;2023-05-07T08:18:02;18.40;99.90
16970;DHT22;8601;48.718;8.992;2023-05-07T08:20:29;18.60;99.90
16970;DHT22;8601;48.718;8.992;2023-05-07T08:22:56;18.70;99.90
16970;DHT22;8601;48.718;8.992;2023-05-07T08:25:23;18.70;99.50
16970;DHT22;8601;48.718;8.992;2023-05-07T08:27:50;18.70;99.30
16970;DHT22;8601;48.718;8.992;2023-05-07T08:30:16;18.80;99.20
16970;DHT22;8601;48.718;8.992;2023-05-07T08:32:45;18.90;99.00
16970;DHT22;8601;48.718;8.992;2023-05-07T08:35:12;18.90;97.50
16970;DHT22;8601;48.718;8.992;2023-05-07T08:37:39;19.00;96.20
16970;DHT22;8601;48.718;8.992;2023-05-07T08:40:07;19.00;96.40
16970;DHT22;8601;48.718;8.992;2023-05-07T08:42:35;19.10;97.00
16970;DHT22;8601;48.718;8.992;2023-05-07T08:45:04;19.30;95.90
16970;DHT22;8601;48.718;8.992;2023-05-07T08:47:39;19.50;96.10
16970;DHT22;8601;48.718;8.992;2023-05-07T08:50:09;19.80;95.80
16970;DHT22;8601;48.718;8.992;2023-05-07T08:52:37;19.90;94.30
16970;DHT22;8601;48.718;8.992;2023-05-07T08:55:04;20.20;94.90
16970;DHT22;8601;48.718;8.992;2023-05-07T08:57:32;20.40;94.90
16970;DHT22;8601;48.718;8.992;2023-05-07T08:59:59;20.70;94.20
16970;DHT22;8601;48.718;8.992;2023-05-07T09:02:26;20.70;91.60
16970;DHT22;8601;48.718;8.992;2023-05-07T09:04:53;20.70;93.50
16970;DHT22;8601;48.718;8.992;2023-05-07T09:07:22;20.90;92.20
16970;DHT22;8601;48.718;8.992;2023-05-07T09:09:49;21.00;90.00
16970;DHT22;8601;48.718;8.992;2023-05-07T09:12:17;21.20;90.30
16970;DHT22;8601;48.718;8.992;2023-05-07T09:14:45;21.30;88.30
16970;DHT22;8601;48.718;8.992;2023-05-07T09:17:12;21.50;87.60
16970;DHT22;8601;48.718;8.992;2023-05-07T09:19:39;21.80;87.90
16970;DHT22;8601;48.718;8.992;2023-05-07T09:22:06;21.80;84.60
16970;DHT22;8601;48.718;8.992;2023-05-07T09:24:35;21.70;88.60
16970;DHT22;8601;48.718;8.992;2023-05-07T09:27:03;21.90;84.80
16970;DHT22;8601;48.718;8.992;2023-05-07T09:29:30;22.00;86.00
16970;DHT22;8601;48.718;8.992;2023-05-07T09:32:00;22.40;84.00
16970;DHT22;8601;48.718;8.992;2023-05-07T09:34:35;22.50;82.50
16970;DHT22;8601;48.718;8.992;2023-05-07T09:37:03;22.70;83.30
16970;DHT22;8601;48.718;8.992;2023-05-07T09:39:40;22.90;79.70
16970;DHT22;8601;48.718;8.992;2023-05-07T09:42:07;23.00;82.30
16970;DHT22;8601;48.718;8.992;2023-05-07T09:44:34;23.00;80.10
16970;DHT22;8601;48.718;8.992;2023-05-07T09:47:04;23.20;78.90
16970;DHT22;8601;48.718;8.992;2023-05-07T09:49:34;23.20;77.10
16970;DHT22;8601;48.718;8.992;2023-05-07T09:52:03;22.90;74.00
16970;DHT22;8601;48.718;8.992;2023-05-07T09:54:31;22.80;76.60
16970;DHT22;8601;48.718;8.992;2023-05-07T09:57:02;23.10;75.50
16970;DHT22;8601;48.718;8.992;2023-05-07T09:59:31;23.40;77.70
16970;DHT22;8601;48.718;8.992;2023-05-07T10:02:00;23.50;77.10
16970;DHT22;8601;48.718;8.992;2023-05-07T10:04:28;23.30;74.80
16970;DHT22;8601;48.718;8.992;2023-05-07T10:06:55;23.30;76.60
16970;DHT22;8601;48.718;8.992;2023-05-07T10:09:23;23.60;76.50
16970;DHT22;8601;48.718;8.992;2023-05-07T10:11:52;23.90;74.80
16970;DHT22;8601;48.718;8.992;2023-05-07T10:14:21;23.90;73.80
16970;DHT22;8601;48.718;8.992;2023-05-07T10:16:49;23.90;73.10
16970;DHT22;8601;48.718;8.992;2023-05-07T10:19:16;23.90;75.40
16970;DHT22;8601;48.718;8.992;2023-05-07T10:21:48;24.30;73.10
16970;DHT22;8601;48.718;8.992;2023-05-07T10:24:19;24.40;72.30
16970;DHT22;8601;48.718;8.992;2023-05-07T10:26:50;24.20;70.20
16970;DHT22;8601;48.718;8.992;2023-05-07T10:29:24;24.50;71.70
16970;DHT22;8601;48.718;8.992;2023-05-07T10:31:58;24.70;72.70
16970;DHT22;8601;48.718;8.992;2023-05-07T10:34:32;24.80;71.10
16970;DHT22;8601;48.718;8.992;2023-05-07T10:37:02;25.00;72.20
16970;DHT22;8601;48.718;8.992;2023-05-07T10:39:30;25.10;66.80
16970;DHT22;8601;48.718;8.992;2023-05-07T10:41:57;24.90;67.10
16970;DHT22;8601;48.718;8.992;2023-05-07T10:44:35;25.00;68.20
16970;DHT22;8601;48.718;8.992;2023-05-07T10:47:06;25.20;66.70
16970;DHT22;8601;48.718;8.992;2023-05-07T10:49:35;25.10;67.20
16970;DHT22;8601;48.718;8.992;2023-05-07T10:52:12;25.10;68.80
16970;DHT22;8601;48.718;8.992;2023-05-07T10:54:40;24.50;66.00
16970;DHT22;8601;48.718;8.992;2023-05-07T10:57:33;24.10;67.20
16970;DHT22;8601;48.718;8.992;2023-05-07T11:00:41;23.90;69.10
16970;DHT22;8601;48.718;8.992;2023-05-07T11:03:08;23.80;70.90
16970;DHT22;8601;48.718;8.992;2023-05-07T11:05:36;23.50;63.40
16970;DHT22;8601;48.718;8.992;2023-05-07T11:08:04;23.60;65.90
16970;DHT22;8601;48.718;8.992;2023-05-07T11:10:51;23.60;68.40
16970;DHT22;8601;48.718;8.992;2023-05-07T11:13:41;23.50;66.60
16970;DHT22;8601;48.718;8.992;2023-05-07T11:16:18;23.30;66.90
16970;DHT22;8601;48.718;8.992;2023-05-07T11:18:46;23.20;68.70
16970;DHT22;8601;48.718;8.992;2023-05-07T11:21:32;23.10;69.90
16970;DHT22;8601;48.718;8.992;2023-05-07T11:24:00;23.00;72.10
16970;DHT22;8601;48.718;8.992;2023-05-07T11:26:29;22.90;74.40
16970;DHT22;8601;48.718;8.992;2023-05-07T11:28:57;22.80;74.40
16970;DHT22;8601;48.718;8.992;2023-05-07T11:31:27;22.60;74.90
16970;DHT22;8601;48.718;8.992;2023-05-07T11:33:55;22.40;76.70
16970;DHT22;8601;48.718;8.992;2023-05-07T11:36:23;22.20;76.50
16970;DHT22;8601;48.718;8.992;2023-05-07T11:38:51;21.80;75.40
16970;DHT22;8601;48.718;8.992;2023-05-07T11:41:18;21.80;80.10
16970;DHT22;8601;48.718;8.992;2023-05-07T11:43:57;21.70;82.20
16970;DHT22;8601;48.718;8.992;2023-05-07T11:46:28;21.50;83.80
16970;DHT22;8601;48.718;8.992;2023-05-07T11:48:57;21.30;79.90
16970;DHT22;8601;48.718;8.992;2023-05-07T11:51:26;21.10;82.40
16970;DHT22;8601;48.718;8.992;2023-05-07T11:53:53;20.90;83.40
16970;DHT22;8601;48.718;8.992;2023-05-07T11:56:20;20.70;91.80
16970;DHT22;8601;48.718;8.992;2023-05-07T11:58:47;20.30;94.30
16970;DHT22;8601;48.718;8.992;2023-05-07T12:01:15;19.90;94.20
16970;DHT22;8601;48.718;8.992;2023-05-07T12:03:46;19.40;96.30
16970;DHT22;8601;48.718;8.992;2023-05-07T12:06:14;18.60;93.50
16970;DHT22;8601;48.718;8.992;2023-05-07T12:08:42;17.90;95.20
16970;DHT22;8601;48.718;8.992;2023-05-07T12:11:12;17.30;94.50
16970;DHT22;8601;48.718;8.992;2023-05-07T12:13:45;16.90;97.80
16970;DHT22;8601;48.718;8.992;2023-05-07T12:16:12;16.60;94.50
16970;DHT22;8601;48.718;8.992;2023-05-07T12:18:40;16.40;99.90
16970;DHT22;8601;48.718;8.992;2023-05-07T12:21:09;16.00;99.90
16970;DHT22;8601;48.718;8.992;2023-05-07T12:23:37;15.70;99.90
16970;DHT22;8601;48.718;8.992;2023-05-07T12:26:05;15.80;99.90
16970;DHT22;8601;48.718;8.992;2023-05-07T12:28:37;15.90;99.90
16970;DHT22;8601;48.718;8.992;2023-05-07T12:31:06;15.90;99.90
16970;DHT22;8601;48.718;8.992;2023-05-07T12:33:34;15.90;99.90
16970;DHT22;8601;48.718;8.992;2023-05-07T12:36:05;15.90;99.90
16970;DHT22;8601;48.718;8.992;2023-05-07T12:38:37;15.90;99.90
16970;DHT22;8601;48.718;8.992;2023-05-07T12:41:07;15.80;99.90
16970;DHT22;8601;48.718;8.992;2023-05-07T12:43:35;15.80;99.90
16970;DHT22;8601;48.718;8.992;2023-05-07T12:46:05;15.80;99.90
16970;DHT22;8601;48.718;8.992;2023-05-07T12:48:32;15.80;99.90
16970;DHT22;8601;48.718;8.992;2023-05-07T12:51:00;15.80;99.90
16970;DHT22;8601;48.718;8.992;2023-05-07T12:53:29;15.90;99.90
16970;DHT22;8601;48.718;8.992;2023-05-07T12:55:59;15.90;99.90
16970;DHT22;8601;48.718;8.992;2023-05-07T12:58:27;16.00;99.90
16970;DHT22;8601;48.718;8.992;2023-05-07T13:00:55;16.00;99.90
16970;DHT22;8601;48.718;8.992;2023-05-07T13:03:26;16.10;99.90
16970;DHT22;8601;48.718;8.992;2023-05-07T13:05:54;16.20;99.90
16970;DHT22;8601;48.718;8.992;2023-05-07T13:08:26;16.10;99.90
16970;DHT22;8601;48.718;8.992;2023-05-07T13:10:53;16.10;99.90
16970;DHT22;8601;48.718;8.992;2023-05-07T13:13:21;16.00;99.90
16970;DHT22;8601;48.718;8.992;2023-05-07T13:15:48;15.80;99.90
16970;DHT22;8601;48.718;8.992;2023-05-07T13:18:15;15.80;99.90
16970;DHT22;8601;48.718;8.992;2023-05-07T13:20:42;15.90;99.90
16970;DHT22;8601;48.718;8.992;2023-05-07T13:23:09;15.70;99.90
16970;DHT22;8601;48.718;8.992;2023-05-07T13:25:36;15.60;99.90
16970;DHT22;8601;48.718;8.992;2023-05-07T13:28:03;15.70;99.90
16970;DHT22;8601;48.718;8.992;2023-05-07T13:30:31;15.80;99.90
16970;DHT22;8601;48.718;8.992;2023-05-07T13:32:59;15.90;99.90
16970;DHT22;8601;48.718;8.992;2023-05-07T13:35:26;16.00;99.90
16970;DHT22;8601;48.718;8.992;2023-05-07T13:37:52;16.00;99.90
16970;DHT22;8601;48.718;8.992;2023-05-07T13:40:20;16.10;99.90
16970;DHT22;8601;48.718;8.992;2023-05-07T13:42:47;16.00;99.90
16970;DHT22;8601;48.718;8.992;2023-05-07T13:45:15;15.90;99.90
16970;DHT22;8601;48.718;8.992;2023-05-07T13:47:43;15.90;99.90
16970;DHT22;8601;48.718;8.992;2023-05-07T13:50:10;15.90;99.90
16970;DHT22;8601;48.718;8.992;2023-05-07T13:52:39;16.00;99.90
16970;DHT22;8601;48.718;8.992;2023-05-07T13:55:08;16.00;99.90
16970;DHT22;8601;48.718;8.992;2023-05-07T13:57:36;16.10;99.90
16970;DHT22;8601;48.718;8.992;2023-05-07T14:00:04;16.20;99.90
16970;DHT22;8601;48.718;8.992;2023-05-07T14:02:32;16.20;99.90
16970;DHT22;8601;48.718;8.992;2023-05-07T14:05:00;16.30;99.90
16970;DHT22;8601;48.718;8.992;2023-05-07T14:07:27;16.30;99.90
16970;DHT22;8601;48.718;8.992;2023-05-07T14:09:54;16.20;99.90
16970;DHT22;8601;48.718;8.992;2023-05-07T14:12:22;16.00;99.90
16970;DHT22;8601;48.718;8.992;2023-05-07T14:14:49;16.00;99.90
16970;DHT22;8601;48.718;8.992;2023-05-07T14:17:17;16.10;99.90
16970;DHT22;8601;48.718;8.992;2023-05-07T14:19:46;16.10;99.90
16970;DHT22;8601;48.718;8.992;2023-05-07T14:22:14;16.10;99.90
16970;DHT22;8601;48.718;8.992;2023-05-07T14:24:41;16.10;99.90
16970;DHT22;8601;48.718;8.992;2023-05-07T14:27:08;16.10;99.90
16970;DHT22;8601;48.718;8.992;2023-05-07T14:29:36;16.10;99.90
16970;DHT22;8601;48.718;8.992;2023-05-07T14:32:03;16.10;99.90
16970;DHT22;8601;48.718;8.992;2023-05-07T14:34:31;16.10;99.90
16970;DHT22;8601;48.718;8.992;2023-05-07T14:36:59;16.00;99.90
16970;DHT22;8601;48.718;8.992;2023-05-07T14:39:28;16.00;99.90
16970;DHT22;8601;48.718;8.992;2023-05-07T14:41:57;16.10;99.90
16970;DHT22;8601;48.718;8.992;2023-05-07T14:44:25;16.10;99.90
16970;DHT22;8601;48.718;8.992;2023-05-07T14:46:52;16.00;99.90
16970;DHT22;8601;48.718;8.992;2023-05-07T14:49:19;16.00;99.90
16970;DHT22;8601;48.718;8.992;2023-05-07T14:51:46;16.00;99.90
16970;DHT22;8601;48.718;8.992;2023-05-07T14:54:14;16.00;99.90
16970;DHT22;8601;48.718;8.992;2023-05-07T14:56:45;15.90;99.90
16970;DHT22;8601;48.718;8.992;2023-05-07T14:59:14;15.90;99.90
16970;DHT22;8601;48.718;8.992;2023-05-07T15:01:42;16.00;99.90
16970;DHT22;8601;48.718;8.992;2023-05-07T15:04:11;15.90;99.90
16970;DHT22;8601;48.718;8.992;2023-05-07T15:06:40;15.90;99.90
16970;DHT22;8601;48.718;8.992;2023-05-07T15:09:08;15.80;99.90
16970;DHT22;8601;48.718;8.992;2023-05-07T15:11:36;15.80;99.90
16970;DHT22;8601;48.718;8.992;2023-05-07T15:14:05;15.70;99.90
16970;DHT22;8601;48.718;8.992;2023-05-07T15:16:33;15.80;99.90
16970;DHT22;8601;48.718;8.992;2023-05-07T15:19:00;15.90;99.90
16970;DHT22;8601;48.718;8.992;2023-05-07T15:21:27;16.00;99.90
16970;DHT22;8601;48.718;8.992;2023-05-07T15:23:56;16.00;99.90
16970;DHT22;8601;48.718;8.992;2023-05-07T15:26:24;16.00;99.90
16970;DHT22;8601;48.718;8.992;2023-05-07T15:28:51;16.00;99.90
16970;DHT22;8601;48.718;8.992;2023-05-07T15:31:22;16.10;99.90
16970;DHT22;8601;48.718;8.992;2023-05-07T15:33:50;16.10;99.90
16970;DHT22;8601;48.718;8.992;2023-05-07T15:36:17;16.20;99.90
16970;DHT22;8601;48.718;8.992;2023-05-07T15:38:44;16.20;99.90
16970;DHT22;8601;48.718;8.992;2023-05-07T15:41:11;16.20;99.90
16970;DHT22;8601;48.718;8.992;2023-05-07T15:43:44;16.30;99.90
16970;DHT22;8601;48.718;8.992;2023-05-07T15:46:12;16.30;99.90
16970;DHT22;8601;48.718;8.992;2023-05-07T15:48:46;16.20;99.90
16970;DHT22;8601;48.718;8.992;2023-05-07T15:51:13;16.20;99.90